Decoded Metar for KWRI (WRIGHTSTOWN in NJ, USA) (IATA:WRI) | Meteo·Mobile Aviation Weather
aviador You're here:

KWRI Decoded Metar

WRIGHTSTOWN in NJ, USA
Report Time2018-11-18 06:55:00
UTC Time2018-11-18 07:42:01
Flight Rules vfr VFR
WindCalm
Visibility9999 m
Phenomena:N/A
Clouds:Broken 190 Hf
Expected CloudBase > 800 ft AGL from Temp-Dew spread
Ceiling19,000 ft
Temp01°C (ISA -14)
Dew Point-1°C (87% RH)
AAT-1.1°C
QNH1026 hPa
Density Alt-1,903 ft
Elevation135 ft
Report Wrong Elevation
Raw Report
KWRI 180655Z 00000KT 10SM BKN190 01/M01 A3029 RMK AO2A WND DATA
ESTMD ALSTG ESTMD SLPNO RVRNO=

Extra information for KWRI:More info

Metar Taf Metar & Taf Last 4 Metars F.Rules Stats Wind Profile Meteogram Temp Stats Airport Information Weather charts Add Link Nearby VenuesMetar ALERT Operation Metar Decoded Social comments

AIRNAV info for KWRI